Time,TemperatureF,DewpointF,PressureIn,WindDirection,WindDirectionDegrees,WindSpeedMPH,WindSpeedGustMPH,Humidity,HourlyPrecipIn,Conditions,Clouds,dailyrainin,SoftwareType,DateUTC
2013-11-04 00:06:00,45.9,34.0,29.74,SSE,165,5.0,9.0,63,0.00,,,0.00,weatherlink.com 1.10,2013-11-04 06:06:00,
2013-11-04 00:21:00,46.0,34.0,29.75,SSW,195,3.0,9.0,63,0.00,,,0.00,weatherlink.com 1.10,2013-11-04 06:21:00,
2013-11-04 00:36:00,46.0,34.0,29.75,SSE,151,2.0,10.0,63,0.00,,,0.00,weatherlink.com 1.10,2013-11-04 06:36:00,
2013-11-04 00:51:00,45.7,34.0,29.75,South,190,3.0,8.0,64,0.00,,,0.00,weatherlink.com 1.10,2013-11-04 06:51:00,
2013-11-04 01:06:00,45.6,34.0,29.75,South,172,3.0,9.0,65,0.00,,,0.00,weatherlink.com 1.10,2013-11-04 07:06:00,
2013-11-04 01:21:00,45.2,34.0,29.75,SSE,152,4.0,8.0,66,0.00,,,0.00,weatherlink.com 1.10,2013-11-04 07:21:00,
2013-11-04 01:36:00,44.7,34.0,29.76,South,176,3.0,7.0,67,0.00,,,0.00,weatherlink.com 1.10,2013-11-04 07:36:00,
2013-11-04 01:51:00,44.8,34.0,29.76,SSE,167,3.0,9.0,67,0.00,,,0.00,weatherlink.com 1.10,2013-11-04 07:51:00,
2013-11-04 02:06:00,44.3,35.0,29.76,SSW,198,2.0,9.0,69,0.00,,,0.00,weatherlink.com 1.10,2013-11-04 08:06:00,
2013-11-04 02:21:00,43.8,35.0,29.76,SSE,160,2.0,6.0,70,0.00,,,0.00,weatherlink.com 1.10,2013-11-04 08:21:00,
2013-11-04 02:36:00,43.0,35.0,29.77,SSW,205,2.0,5.0,72,0.00,,,0.00,weatherlink.com 1.10,2013-11-04 08:36:00,
2013-11-04 02:52:00,42.4,34.0,29.77,SSW,193,1.0,7.0,73,0.00,,,0.00,weatherlink.com 1.10,2013-11-04 08:52:00,
2013-11-04 03:07:00,41.7,34.0,29.78,SW,232,1.0,3.0,74,0.00,,,0.00,weatherlink.com 1.10,2013-11-04 09:07:00,
2013-11-04 03:22:00,41.7,34.0,29.79,SW,214,0.0,4.0,75,0.00,,,0.00,weatherlink.com 1.10,2013-11-04 09:22:00,
2013-11-04 03:37:00,41.5,34.0,29.78,SSE,160,1.0,2.0,75,0.00,,,0.00,weatherlink.com 1.10,2013-11-04 09:37:00,
2013-11-04 03:52:00,41.1,34.0,29.79,SW,233,0.0,1.0,76,0.00,,,0.00,weatherlink.com 1.10,2013-11-04 09:52:00,
2013-11-04 04:07:00,40.7,34.0,29.78,SW,229,0.0,0.0,76,0.00,,,0.00,weatherlink.com 1.10,2013-11-04 10:07:00,
2013-11-04 04:22:00,40.1,33.0,29.78,SW,218,0.0,1.0,77,0.00,,,0.00,weatherlink.com 1.10,2013-11-04 10:22:00,
2013-11-04 04:37:00,39.5,33.0,29.79,SW,218,0.0,1.0,78,0.00,,,0.00,weatherlink.com 1.10,2013-11-04 10:37:00,
2013-11-04 04:52:00,39.2,33.0,29.80,SW,218,0.0,1.0,79,0.00,,,0.00,weatherlink.com 1.10,2013-11-04 10:52:00,
2013-11-04 05:07:00,38.9,33.0,29.80,SW,218,0.0,0.0,80,0.00,,,0.00,weatherlink.com 1.10,2013-11-04 11:07:00,
2013-11-04 05:22:00,39.1,33.0,29.82,WSW,255,0.0,1.0,79,0.00,,,0.00,weatherlink.com 1.10,2013-11-04 11:22:00,
2013-11-04 05:37:00,39.1,33.0,29.82,West,275,1.0,2.0,79,0.00,,,0.00,weatherlink.com 1.10,2013-11-04 11:37:00,
2013-11-04 05:52:00,38.8,33.0,29.82,West,271,1.0,3.0,78,0.00,,,0.00,weatherlink.com 1.10,2013-11-04 11:52:00,
2013-11-04 06:07:00,38.6,32.0,29.82,West,278,0.0,2.0,78,0.00,,,0.00,weatherlink.com 1.10,2013-11-04 12:07:00,
2013-11-04 06:22:00,38.9,32.0,29.83,WNW,286,2.0,3.0,76,0.00,,,0.00,weatherlink.com 1.10,2013-11-04 12:22:00,
2013-11-04 06:37:00,39.4,31.0,29.84,WNW,293,3.0,4.0,73,0.00,,,0.00,weatherlink.com 1.10,2013-11-04 12:37:00,
2013-11-04 06:52:00,39.9,31.0,29.84,WNW,290,1.0,6.0,70,0.00,,,0.00,weatherlink.com 1.10,2013-11-04 12:52:00,
2013-11-04 07:07:00,40.1,30.0,29.84,West,275,2.0,7.0,68,0.00,,,0.00,weatherlink.com 1.10,2013-11-04 13:07:00,
2013-11-04 07:22:00,39.9,30.0,29.84,WNW,301,3.0,6.0,69,0.00,,,0.00,weatherlink.com 1.10,2013-11-04 13:22:00,
2013-11-04 07:37:00,39.7,30.0,29.84,West,275,1.0,8.0,69,0.00,,,0.00,weatherlink.com 1.10,2013-11-04 13:37:00,
2013-11-04 07:52:00,39.5,30.0,29.86,WNW,282,2.0,7.0,69,0.00,,,0.00,weatherlink.com 1.10,2013-11-04 13:52:00,
2013-11-04 08:07:00,39.3,29.0,29.88,WNW,284,2.0,7.0,68,0.00,,,0.00,weatherlink.com 1.10,2013-11-04 14:07:00,
2013-11-04 08:22:00,39.1,29.0,29.89,West,275,1.0,6.0,68,0.00,,,0.00,weatherlink.com 1.10,2013-11-04 14:22:00,
2013-11-04 08:37:00,39.0,29.0,29.90,WNW,289,2.0,5.0,67,0.00,,,0.00,weatherlink.com 1.10,2013-11-04 14:37:00,
2013-11-04 08:52:00,39.0,29.0,29.91,West,267,1.0,3.0,67,0.00,,,0.00,weatherlink.com 1.10,2013-11-04 14:52:00,
2013-11-04 09:07:00,39.1,29.0,29.91,West,269,1.0,4.0,67,0.00,,,0.00,weatherlink.com 1.10,2013-11-04 15:07:00,
2013-11-04 09:22:00,39.3,28.0,29.92,NW,312,3.0,7.0,65,0.00,,,0.00,weatherlink.com 1.10,2013-11-04 15:22:00,
2013-11-04 09:37:00,39.3,28.0,29.92,West,274,1.0,5.0,65,0.00,,,0.00,weatherlink.com 1.10,2013-11-04 15:37:00,
2013-11-04 09:53:00,39.4,28.0,29.93,WSW,239,0.0,3.0,65,0.00,,,0.00,weatherlink.com 1.10,2013-11-04 15:53:00,
2013-11-04 10:08:00,39.4,29.0,29.93,West,270,2.0,6.0,66,0.00,,,0.00,weatherlink.com 1.10,2013-11-04 16:08:00,
2013-11-04 10:23:00,39.5,29.0,29.93,WNW,284,4.0,5.0,65,0.00,,,0.00,weatherlink.com 1.10,2013-11-04 16:23:00,
2013-11-04 10:38:00,39.5,28.0,29.94,West,274,5.0,6.0,64,0.00,,,0.00,weatherlink.com 1.10,2013-11-04 16:38:00,
2013-11-04 10:53:00,39.4,28.0,29.95,West,273,8.0,8.0,64,0.00,,,0.00,weatherlink.com 1.10,2013-11-04 16:53:00,
2013-11-04 11:08:00,39.3,28.0,29.95,WNW,301,3.0,11.0,63,0.00,,,0.00,weatherlink.com 1.10,2013-11-04 17:08:00,
2013-11-04 11:23:00,39.3,27.0,29.95,WNW,288,5.0,9.0,62,0.00,,,0.00,weatherlink.com 1.10,2013-11-04 17:23:00,
2013-11-04 11:38:00,39.2,27.0,29.95,WNW,283,4.0,9.0,63,0.00,,,0.00,weatherlink.com 1.10,2013-11-04 17:38:00,
2013-11-04 11:53:00,39.4,28.0,29.95,WNW,285,6.0,9.0,63,0.00,,,0.00,weatherlink.com 1.10,2013-11-04 17:53:00,
2013-11-04 12:08:00,39.9,27.0,29.96,WNW,293,7.0,10.0,60,0.00,,,0.00,weatherlink.com 1.10,2013-11-04 18:08:00,
2013-11-04 12:23:00,40.5,27.0,29.96,West,260,6.0,12.0,59,0.00,,,0.00,weatherlink.com 1.10,2013-11-04 18:23:00,
2013-11-04 12:38:00,40.2,27.0,29.95,West,276,7.0,11.0,60,0.00,,,0.00,weatherlink.com 1.10,2013-11-04 18:38:00,
2013-11-04 12:53:00,40.8,26.0,29.95,West,280,7.0,8.0,57,0.00,,,0.00,weatherlink.com 1.10,2013-11-04 18:53:00,
2013-11-04 13:08:00,41.2,27.0,29.95,West,278,3.0,9.0,57,0.00,,,0.00,weatherlink.com 1.10,2013-11-04 19:08:00,
2013-11-04 13:23:00,41.5,27.0,29.95,West,277,4.0,9.0,57,0.00,,,0.00,weatherlink.com 1.10,2013-11-04 19:23:00,
2013-11-04 13:38:00,42.1,27.0,29.95,WNW,290,5.0,12.0,56,0.00,,,0.00,weatherlink.com 1.10,2013-11-04 19:38:00,
2013-11-04 13:53:00,42.4,27.0,29.96,SW,235,9.0,12.0,54,0.00,,,0.00,weatherlink.com 1.10,2013-11-04 19:53:00,
2013-11-04 14:08:00,43.1,27.0,29.96,West,259,4.0,9.0,53,0.00,,,0.00,weatherlink.com 1.10,2013-11-04 20:08:00,
2013-11-04 14:23:00,43.1,26.0,29.97,WSW,243,6.0,12.0,51,0.00,,,0.00,weatherlink.com 1.10,2013-11-04 20:23:00,
2013-11-04 14:38:00,42.9,25.0,29.97,West,273,7.0,15.0,50,0.00,,,0.00,weatherlink.com 1.10,2013-11-04 20:38:00,
2013-11-04 14:53:00,42.9,25.0,29.97,West,271,4.0,12.0,49,0.00,,,0.00,weatherlink.com 1.10,2013-11-04 20:53:00,
2013-11-04 15:08:00,43.2,25.0,29.98,West,271,3.0,13.0,49,0.00,,,0.00,weatherlink.com 1.10,2013-11-04 21:08:00,
2013-11-04 15:23:00,42.8,25.0,29.98,West,274,8.0,15.0,49,0.00,,,0.00,weatherlink.com 1.10,2013-11-04 21:23:00,
2013-11-04 15:38:00,42.7,25.0,30.00,West,264,11.0,12.0,50,0.00,,,0.00,weatherlink.com 1.10,2013-11-04 21:38:00,
2013-11-04 15:53:00,42.3,25.0,30.00,WNW,285,5.0,13.0,50,0.00,,,0.00,weatherlink.com 1.10,2013-11-04 21:53:00,
2013-11-04 16:08:00,41.6,25.0,30.01,West,277,5.0,13.0,51,0.00,,,0.00,weatherlink.com 1.10,2013-11-04 22:08:00,
2013-11-04 16:23:00,41.1,24.0,30.02,West,259,3.0,10.0,52,0.00,,,0.00,weatherlink.com 1.10,2013-11-04 22:23:00,
2013-11-04 16:38:00,40.6,24.0,30.02,WSW,257,3.0,8.0,53,0.00,,,0.00,weatherlink.com 1.10,2013-11-04 22:38:00,
2013-11-04 16:53:00,39.8,24.0,30.02,West,274,2.0,6.0,54,0.00,,,0.00,weatherlink.com 1.10,2013-11-04 22:53:00,
2013-11-04 17:08:00,38.8,24.0,30.02,West,269,2.0,3.0,56,0.00,,,0.00,weatherlink.com 1.10,2013-11-04 23:08:00,
2013-11-04 17:23:00,38.1,24.0,30.03,WSW,245,0.0,4.0,57,0.00,,,0.00,weatherlink.com 1.10,2013-11-04 23:23:00,
2013-11-04 17:38:00,37.0,24.0,30.03,WSW,243,2.0,2.0,59,0.00,,,0.00,weatherlink.com 1.10,2013-11-04 23:38:00,
2013-11-04 17:53:00,36.1,23.0,30.04,WSW,246,1.0,1.0,60,0.00,,,0.00,weatherlink.com 1.10,2013-11-04 23:53:00,
2013-11-04 18:08:00,35.8,23.0,30.05,WSW,240,1.0,2.0,61,0.00,,,0.00,weatherlink.com 1.10,2013-11-05 00:08:00,
2013-11-04 18:23:00,35.0,23.0,30.07,West,269,0.0,3.0,62,0.00,,,0.00,weatherlink.com 1.10,2013-11-05 00:23:00,
2013-11-04 18:39:00,34.1,23.0,30.07,West,266,0.0,2.0,63,0.00,,,0.00,weatherlink.com 1.10,2013-11-05 00:39:00,
2013-11-04 18:54:00,33.9,23.0,30.08,SW,224,1.0,2.0,64,0.00,,,0.00,weatherlink.com 1.10,2013-11-05 00:54:00,
2013-11-04 19:09:00,33.4,23.0,30.08,SW,236,1.0,2.0,65,0.00,,,0.00,weatherlink.com 1.10,2013-11-05 01:09:00,
2013-11-04 19:24:00,33.2,23.0,30.09,WSW,238,1.0,2.0,65,0.00,,,0.00,weatherlink.com 1.10,2013-11-05 01:24:00,
2013-11-04 19:39:00,33.4,23.0,30.10,SW,236,2.0,3.0,65,0.00,,,0.00,weatherlink.com 1.10,2013-11-05 01:39:00,
2013-11-04 19:54:00,32.9,22.0,30.10,West,265,2.0,4.0,65,0.00,,,0.00,weatherlink.com 1.10,2013-11-05 01:54:00,
2013-11-04 20:09:00,32.7,22.0,30.10,WSW,249,1.0,2.0,65,0.00,,,0.00,weatherlink.com 1.10,2013-11-05 02:09:00,
2013-11-04 20:24:00,31.9,22.0,30.11,WSW,243,1.0,1.0,66,0.00,,,0.00,weatherlink.com 1.10,2013-11-05 02:24:00,
2013-11-04 20:39:00,31.6,22.0,30.11,WSW,250,2.0,3.0,67,0.00,,,0.00,weatherlink.com 1.10,2013-11-05 02:39:00,
2013-11-04 20:54:00,31.2,22.0,30.12,WSW,243,1.0,3.0,68,0.00,,,0.00,weatherlink.com 1.10,2013-11-05 02:54:00,
2013-11-04 21:09:00,31.4,22.0,30.14,WSW,242,1.0,3.0,68,0.00,,,0.00,weatherlink.com 1.10,2013-11-05 03:09:00,
2013-11-04 21:24:00,31.0,22.0,30.14,SW,236,2.0,4.0,68,0.00,,,0.00,weatherlink.com 1.10,2013-11-05 03:24:00,
2013-11-04 21:39:00,29.8,21.0,30.15,WSW,245,1.0,2.0,70,0.00,,,0.00,weatherlink.com 1.10,2013-11-05 03:39:00,
2013-11-04 21:54:00,28.7,21.0,30.16,West,271,1.0,2.0,72,0.00,,,0.00,weatherlink.com 1.10,2013-11-05 03:54:00,
2013-11-04 22:24:00,27.8,21.0,30.18,West,263,0.0,2.0,74,0.00,,,0.00,weatherlink.com 1.10,2013-11-05 04:24:00,
2013-11-04 22:39:00,27.2,20.0,30.19,West,261,0.0,1.0,75,0.00,,,0.00,weatherlink.com 1.10,2013-11-05 04:39:00,
2013-11-04 22:54:00,26.7,20.0,30.20,WSW,252,0.0,1.0,75,0.00,,,0.00,weatherlink.com 1.10,2013-11-05 04:54:00,
2013-11-04 23:09:00,25.9,19.0,30.20,WSW,257,0.0,2.0,76,0.00,,,0.00,weatherlink.com 1.10,2013-11-05 05:09:00,
2013-11-04 23:24:00,25.4,19.0,30.20,SW,233,1.0,1.0,76,0.00,,,0.00,weatherlink.com 1.10,2013-11-05 05:24:00,
2013-11-04 23:39:00,25.3,19.0,30.21,WSW,242,0.0,1.0,77,0.00,,,0.00,weatherlink.com 1.10,2013-11-05 05:39:00,
2013-11-04 23:54:00,25.0,19.0,30.21,SW,222,0.0,1.0,77,0.00,,,0.00,weatherlink.com 1.10,2013-11-05 05:54:00,